Terminal Aerodrome Forecast
Issued by NWS Duluth, MN

Home | Current Version | Previous Version | Text Only | Print | Product List | Glossary On
Versions: 1 2 3 4 5 6 7 8 9 10 11 12 13 14 15 16 17 18 19 20 21 22 23 24 25 26 27 28 29 30
000
FTUS43 KDLH 210502 AAA
TAFINL
TAF AMD
KINL 210502Z 2105/2124 22004KT P6SM SKC
     FM210600 00000KT 1/2SM FG BKN003
     FM210700 00000KT 1/4SM FG BKN003
     FM211500 00000KT 3/4SM BR OVC003
     FM211900 VRB03KT P6SM BKN008
     FM212000 VRB03KT P6SM BKN015=

USA.gov is the U.S. government's official web portal to all federal, state and local government web resources and services.